<?xml version="1.0" encoding="UTF-8" standalone="no" ?>
<gpx xmlns="http://www.topografix.com/GPX/1/1" xmlns:xsi="http://www.w3.org/2001/XMLSchema-instance" xsi:schemaLocation="http://www.topografix.com/GPX/1/1 http://www.topografix.com/GPX/1/1/gpx.xsd" version="1.1" creator="VisuGPX - https://www.visugpx.com">
  <metadata>
    <name>100 km VTT - Rouffignac Saint Cernin - Téléthon</name>
    <desc><![CDATA[LES 100 KM VTT EST UNE ÉPREUVE EN RELAIS (OU SEUL).
Le but du relais est de parcourir en équipe 100 km par fraction d%u2019un tour de 10 km.
Le nombre de coureurs par équipe est fixé à 10 maximum (en solo au minimum!).
L%u2019intégralité des bénéfices sera reversée au téléthon.]]></desc>
  </metadata>
  <trk>
    <name><![CDATA[2012/09/22 Boucles téléthon sens 2]]></name>
    <trkseg>
      <trkpt lat="45.04719" lon="0.97763">
        <ele>290.94</ele>
        <time>2012-09-22T15:02:50Z</time>
      </trkpt>
      <trkpt lat="45.04717" lon="0.97766">
        <ele>290.46</ele>
        <time>2012-09-22T15:02:51Z</time>
      </trkpt>
      <trkpt lat="45.04716" lon="0.97769">
        <ele>290.94</ele>
        <time>2012-09-22T15:02:52Z</time>
      </trkpt>
      <trkpt lat="45.04717" lon="0.97771">
        <ele>290.46</ele>
        <time>2012-09-22T15:02:53Z</time>
      </trkpt>
      <trkpt lat="45.04719" lon="0.97776">
        <ele>290.94</ele>
        <time>2012-09-22T15:03:05Z</time>
      </trkpt>
      <trkpt lat="45.0472" lon="0.97776">
        <ele>290.46</ele>
        <time>2012-09-22T15:03:34Z</time>
      </trkpt>
      <trkpt lat="45.04721" lon="0.97776">
        <ele>291.42</ele>
        <time>2012-09-22T15:03:54Z</time>
      </trkpt>
      <trkpt lat="45.04723" lon="0.97776">
        <ele>290.46</ele>
        <time>2012-09-22T15:04:27Z</time>
      </trkpt>
      <trkpt lat="45.04723" lon="0.97777">
        <ele>290.46</ele>
        <time>2012-09-22T15:04:59Z</time>
      </trkpt>
      <trkpt lat="45.04722" lon="0.97777">
        <ele>290.46</ele>
        <time>2012-09-22T15:05:23Z</time>
      </trkpt>
      <trkpt lat="45.04724" lon="0.97779">
        <ele>290.46</ele>
        <time>2012-09-22T15:05:43Z</time>
      </trkpt>
      <trkpt lat="45.04725" lon="0.9778">
        <ele>289.97</ele>
        <time>2012-09-22T15:05:44Z</time>
      </trkpt>
      <trkpt lat="45.04726" lon="0.97781">
        <ele>290.46</ele>
        <time>2012-09-22T15:05:45Z</time>
      </trkpt>
      <trkpt lat="45.04728" lon="0.97782">
        <ele>290.46</ele>
        <time>2012-09-22T15:05:46Z</time>
      </trkpt>
      <trkpt lat="45.04757" lon="0.97783">
        <ele>290.46</ele>
        <time>2012-09-22T15:05:57Z</time>
      </trkpt>
      <trkpt lat="45.04783" lon="0.97767">
        <ele>291.9</ele>
        <time>2012-09-22T15:06:08Z</time>
      </trkpt>
      <trkpt lat="45.04834" lon="0.97726">
        <ele>292.86</ele>
        <time>2012-09-22T15:06:25Z</time>
      </trkpt>
      <trkpt lat="45.04882" lon="0.97699">
        <ele>295.26</ele>
        <time>2012-09-22T15:06:41Z</time>
      </trkpt>
      <trkpt lat="45.04917" lon="0.97676">
        <ele>295.74</ele>
        <time>2012-09-22T15:06:52Z</time>
      </trkpt>
      <trkpt lat="45.04952" lon="0.97635">
        <ele>297.18</ele>
        <time>2012-09-22T15:07:05Z</time>
      </trkpt>
      <trkpt lat="45.04952" lon="0.9763">
        <ele>297.67</ele>
        <time>2012-09-22T15:07:06Z</time>
      </trkpt>
      <trkpt lat="45.04951" lon="0.97626">
        <ele>297.18</ele>
        <time>2012-09-22T15:07:07Z</time>
      </trkpt>
      <trkpt lat="45.04958" lon="0.97565">
        <ele>298.15</ele>
        <time>2012-09-22T15:07:20Z</time>
      </trkpt>
      <trkpt lat="45.04978" lon="0.97466">
        <ele>297.18</ele>
        <time>2012-09-22T15:07:36Z</time>
      </trkpt>
      <trkpt lat="45.04996" lon="0.97382">
        <ele>296.7</ele>
        <time>2012-09-22T15:07:50Z</time>
      </trkpt>
      <trkpt lat="45.04997" lon="0.97376">
        <ele>296.22</ele>
        <time>2012-09-22T15:07:51Z</time>
      </trkpt>
      <trkpt lat="45.05007" lon="0.97334">
        <ele>296.22</ele>
        <time>2012-09-22T15:07:58Z</time>
      </trkpt>
      <trkpt lat="45.0501" lon="0.97331">
        <ele>296.22</ele>
        <time>2012-09-22T15:07:59Z</time>
      </trkpt>
      <trkpt lat="45.05014" lon="0.9733">
        <ele>296.7</ele>
        <time>2012-09-22T15:08:00Z</time>
      </trkpt>
      <trkpt lat="45.05018" lon="0.9733">
        <ele>296.7</ele>
        <time>2012-09-22T15:08:01Z</time>
      </trkpt>
      <trkpt lat="45.05023" lon="0.9733">
        <ele>296.22</ele>
        <time>2012-09-22T15:08:02Z</time>
      </trkpt>
      <trkpt lat="45.05027" lon="0.97331">
        <ele>296.22</ele>
        <time>2012-09-22T15:08:03Z</time>
      </trkpt>
      <trkpt lat="45.05083" lon="0.97348">
        <ele>292.86</ele>
        <time>2012-09-22T15:08:13Z</time>
      </trkpt>
      <trkpt lat="45.05088" lon="0.97351">
        <ele>292.38</ele>
        <time>2012-09-22T15:08:14Z</time>
      </trkpt>
      <trkpt lat="45.05091" lon="0.97354">
        <ele>291.42</ele>
        <time>2012-09-22T15:08:15Z</time>
      </trkpt>
      <trkpt lat="45.05092" lon="0.97356">
        <ele>290.94</ele>
        <time>2012-09-22T15:08:16Z</time>
      </trkpt>
      <trkpt lat="45.05092" lon="0.97357">
        <ele>290.46</ele>
        <time>2012-09-22T15:08:17Z</time>
      </trkpt>
      <trkpt lat="45.05093" lon="0.97356">
        <ele>290.94</ele>
        <time>2012-09-22T15:08:18Z</time>
      </trkpt>
      <trkpt lat="45.05093" lon="0.97354">
        <ele>289.97</ele>
        <time>2012-09-22T15:08:19Z</time>
      </trkpt>
      <trkpt lat="45.05087" lon="0.97347">
        <ele>291.42</ele>
        <time>2012-09-22T15:08:23Z</time>
      </trkpt>
      <trkpt lat="45.05085" lon="0.97344">
        <ele>290.94</ele>
        <time>2012-09-22T15:08:24Z</time>
      </trkpt>
      <trkpt lat="45.05085" lon="0.9734">
        <ele>290.94</ele>
        <time>2012-09-22T15:08:25Z</time>
      </trkpt>
      <trkpt lat="45.05086" lon="0.97337">
        <ele>290.94</ele>
        <time>2012-09-22T15:08:26Z</time>
      </trkpt>
      <trkpt lat="45.05089" lon="0.97336">
        <ele>291.42</ele>
        <time>2012-09-22T15:08:27Z</time>
      </trkpt>
      <trkpt lat="45.05092" lon="0.97339">
        <ele>290.46</ele>
        <time>2012-09-22T15:08:28Z</time>
      </trkpt>
      <trkpt lat="45.05095" lon="0.97343">
        <ele>290.46</ele>
        <time>2012-09-22T15:08:29Z</time>
      </trkpt>
      <trkpt lat="45.05098" lon="0.97349">
        <ele>289.49</ele>
        <time>2012-09-22T15:08:30Z</time>
      </trkpt>
      <trkpt lat="45.05135" lon="0.97399">
        <ele>287.57</ele>
        <time>2012-09-22T15:08:38Z</time>
      </trkpt>
      <trkpt lat="45.05197" lon="0.97476">
        <ele>289.49</ele>
        <time>2012-09-22T15:08:52Z</time>
      </trkpt>
      <trkpt lat="45.05214" lon="0.97497">
        <ele>291.42</ele>
        <time>2012-09-22T15:08:57Z</time>
      </trkpt>
      <trkpt lat="45.05242" lon="0.97527">
        <ele>292.86</ele>
        <time>2012-09-22T15:09:05Z</time>
      </trkpt>
      <trkpt lat="45.05279" lon="0.97566">
        <ele>292.86</ele>
        <time>2012-09-22T15:09:17Z</time>
      </trkpt>
      <trkpt lat="45.05301" lon="0.97635">
        <ele>292.38</ele>
        <time>2012-09-22T15:09:30Z</time>
      </trkpt>
      <trkpt lat="45.053" lon="0.97638">
        <ele>292.38</ele>
        <time>2012-09-22T15:09:31Z</time>
      </trkpt>
      <trkpt lat="45.05298" lon="0.9764">
        <ele>292.38</ele>
        <time>2012-09-22T15:09:32Z</time>
      </trkpt>
      <trkpt lat="45.05295" lon="0.97642">
        <ele>292.38</ele>
        <time>2012-09-22T15:09:33Z</time>
      </trkpt>
      <trkpt lat="45.05293" lon="0.97644">
        <ele>292.86</ele>
        <time>2012-09-22T15:09:34Z</time>
      </trkpt>
      <trkpt lat="45.05242" lon="0.97686">
        <ele>294.3</ele>
        <time>2012-09-22T15:09:50Z</time>
      </trkpt>
      <trkpt lat="45.05221" lon="0.97711">
        <ele>292.38</ele>
        <time>2012-09-22T15:10:01Z</time>
      </trkpt>
      <trkpt lat="45.05218" lon="0.97713">
        <ele>291.9</ele>
        <time>2012-09-22T15:10:10Z</time>
      </trkpt>
      <trkpt lat="45.05216" lon="0.97714">
        <ele>291.9</ele>
        <time>2012-09-22T15:10:11Z</time>
      </trkpt>
      <trkpt lat="45.05201" lon="0.97716">
        <ele>292.38</ele>
        <time>2012-09-22T15:10:20Z</time>
      </trkpt>
      <trkpt lat="45.05201" lon="0.97718">
        <ele>292.86</ele>
        <time>2012-09-22T15:10:21Z</time>
      </trkpt>
      <trkpt lat="45.05202" lon="0.9772">
        <ele>292.86</ele>
        <time>2012-09-22T15:10:22Z</time>
      </trkpt>
      <trkpt lat="45.05202" lon="0.97722">
        <ele>292.86</ele>
        <time>2012-09-22T15:10:23Z</time>
      </trkpt>
      <trkpt lat="45.05203" lon="0.97725">
        <ele>292.38</ele>
        <time>2012-09-22T15:10:24Z</time>
      </trkpt>
      <trkpt lat="45.05204" lon="0.97728">
        <ele>292.86</ele>
        <time>2012-09-22T15:10:25Z</time>
      </trkpt>
      <trkpt lat="45.05205" lon="0.97731">
        <ele>292.86</ele>
        <time>2012-09-22T15:10:26Z</time>
      </trkpt>
      <trkpt lat="45.05205" lon="0.97736">
        <ele>292.38</ele>
        <time>2012-09-22T15:10:27Z</time>
      </trkpt>
      <trkpt lat="45.05205" lon="0.9774">
        <ele>291.9</ele>
        <time>2012-09-22T15:10:28Z</time>
      </trkpt>
      <trkpt lat="45.05207" lon="0.97763">
        <ele>291.42</ele>
        <time>2012-09-22T15:10:32Z</time>
      </trkpt>
      <trkpt lat="45.05206" lon="0.97785">
        <ele>290.94</ele>
        <time>2012-09-22T15:10:35Z</time>
      </trkpt>
      <trkpt lat="45.05204" lon="0.97793">
        <ele>289.97</ele>
        <time>2012-09-22T15:10:36Z</time>
      </trkpt>
      <trkpt lat="45.052" lon="0.97799">
        <ele>289.97</ele>
        <time>2012-09-22T15:10:37Z</time>
      </trkpt>
      <trkpt lat="45.05189" lon="0.97817">
        <ele>289.01</ele>
        <time>2012-09-22T15:10:40Z</time>
      </trkpt>
      <trkpt lat="45.0515" lon="0.97888">
        <ele>287.57</ele>
        <time>2012-09-22T15:10:51Z</time>
      </trkpt>
      <trkpt lat="45.05123" lon="0.97927">
        <ele>288.53</ele>
        <time>2012-09-22T15:10:59Z</time>
      </trkpt>
      <trkpt lat="45.05121" lon="0.97933">
        <ele>288.05</ele>
        <time>2012-09-22T15:11:00Z</time>
      </trkpt>
      <trkpt lat="45.05121" lon="0.9794">
        <ele>288.05</ele>
        <time>2012-09-22T15:11:01Z</time>
      </trkpt>
      <trkpt lat="45.0512" lon="0.97956">
        <ele>287.09</ele>
        <time>2012-09-22T15:11:03Z</time>
      </trkpt>
      <trkpt lat="45.0512" lon="0.97985">
        <ele>285.65</ele>
        <time>2012-09-22T15:11:06Z</time>
      </trkpt>
      <trkpt lat="45.05118" lon="0.98024">
        <ele>282.77</ele>
        <time>2012-09-22T15:11:10Z</time>
      </trkpt>
      <trkpt lat="45.05115" lon="0.98062">
        <ele>278.92</ele>
        <time>2012-09-22T15:11:14Z</time>
      </trkpt>
      <trkpt lat="45.05114" lon="0.98102">
        <ele>275.07</ele>
        <time>2012-09-22T15:11:18Z</time>
      </trkpt>
      <trkpt lat="45.05116" lon="0.9814">
        <ele>271.23</ele>
        <time>2012-09-22T15:11:22Z</time>
      </trkpt>
      <trkpt lat="45.05114" lon="0.98166">
        <ele>268.35</ele>
        <time>2012-09-22T15:11:26Z</time>
      </trkpt>
      <trkpt lat="45.05113" lon="0.98172">
        <ele>267.38</ele>
        <time>2012-09-22T15:11:27Z</time>
      </trkpt>
      <trkpt lat="45.05113" lon="0.98178">
        <ele>267.38</ele>
        <time>2012-09-22T15:11:28Z</time>
      </trkpt>
      <trkpt lat="45.0511" lon="0.98215">
        <ele>263.54</ele>
        <time>2012-09-22T15:11:35Z</time>
      </trkpt>
      <trkpt lat="45.0511" lon="0.98249">
        <ele>260.65</ele>
        <time>2012-09-22T15:11:42Z</time>
      </trkpt>
      <trkpt lat="45.0511" lon="0.98255">
        <ele>260.65</ele>
        <time>2012-09-22T15:11:43Z</time>
      </trkpt>
      <trkpt lat="45.05114" lon="0.98306">
        <ele>257.29</ele>
        <time>2012-09-22T15:11:48Z</time>
      </trkpt>
      <trkpt lat="45.05116" lon="0.98332">
        <ele>256.33</ele>
        <time>2012-09-22T15:11:50Z</time>
      </trkpt>
      <trkpt lat="45.05121" lon="0.98373">
        <ele>252.96</ele>
        <time>2012-09-22T15:11:53Z</time>
      </trkpt>
      <trkpt lat="45.05125" lon="0.98411">
        <ele>249.6</ele>
        <time>2012-09-22T15:11:56Z</time>
      </trkpt>
      <trkpt lat="45.05127" lon="0.98437">
        <ele>248.64</ele>
        <time>2012-09-22T15:11:58Z</time>
      </trkpt>
      <trkpt lat="45.05129" lon="0.98461">
        <ele>246.72</ele>
        <time>2012-09-22T15:12:00Z</time>
      </trkpt>
      <trkpt lat="45.05133" lon="0.98505">
        <ele>243.83</ele>
        <time>2012-09-22T15:12:04Z</time>
      </trkpt>
      <trkpt lat="45.05134" lon="0.98513">
        <ele>242.87</ele>
        <time>2012-09-22T15:12:05Z</time>
      </trkpt>
      <trkpt lat="45.05135" lon="0.9853">
        <ele>241.91</ele>
        <time>2012-09-22T15:12:07Z</time>
      </trkpt>
      <trkpt lat="45.05136" lon="0.98571">
        <ele>238.54</ele>
        <time>2012-09-22T15:12:12Z</time>
      </trkpt>
      <trkpt lat="45.05138" lon="0.98588">
        <ele>237.58</ele>
        <time>2012-09-22T15:12:14Z</time>
      </trkpt>
      <trkpt lat="45.05142" lon="0.98639">
        <ele>234.7</ele>
        <time>2012-09-22T15:12:19Z</time>
      </trkpt>
      <trkpt lat="45.05145" lon="0.98663">
        <ele>233.26</ele>
        <time>2012-09-22T15:12:22Z</time>
      </trkpt>
      <trkpt lat="45.05152" lon="0.98729">
        <ele>230.37</ele>
        <time>2012-09-22T15:12:30Z</time>
      </trkpt>
      <trkpt lat="45.05158" lon="0.98775">
        <ele>227.97</ele>
        <time>2012-09-22T15:12:35Z</time>
      </trkpt>
      <trkpt lat="45.05159" lon="0.98784">
        <ele>227.49</ele>
        <time>2012-09-22T15:12:36Z</time>
      </trkpt>
      <trkpt lat="45.05159" lon="0.98793">
        <ele>226.53</ele>
        <time>2012-09-22T15:12:37Z</time>
      </trkpt>
      <trkpt lat="45.05156" lon="0.98828">
        <ele>223.16</ele>
        <time>2012-09-22T15:12:41Z</time>
      </trkpt>
      <trkpt lat="45.05155" lon="0.98855">
        <ele>219.8</ele>
        <time>2012-09-22T15:12:44Z</time>
      </trkpt>
      <trkpt lat="45.05153" lon="0.98883">
        <ele>216.91</ele>
        <time>2012-09-22T15:12:47Z</time>
      </trkpt>
      <trkpt lat="45.05152" lon="0.98918">
        <ele>213.07</ele>
        <time>2012-09-22T15:12:51Z</time>
      </trkpt>
      <trkpt lat="45.05151" lon="0.98944">
        <ele>211.63</ele>
        <time>2012-09-22T15:12:54Z</time>
      </trkpt>
      <trkpt lat="45.05149" lon="0.98971">
        <ele>208.26</ele>
        <time>2012-09-22T15:12:57Z</time>
      </trkpt>
      <trkpt lat="45.05148" lon="0.98988">
        <ele>206.34</ele>
        <time>2012-09-22T15:12:59Z</time>
      </trkpt>
      <trkpt lat="45.05147" lon="0.99005">
        <ele>204.42</ele>
        <time>2012-09-22T15:13:01Z</time>
      </trkpt>
      <trkpt lat="45.05146" lon="0.99013">
        <ele>203.46</ele>
        <time>2012-09-22T15:13:02Z</time>
      </trkpt>
      <trkpt lat="45.05145" lon="0.99022">
        <ele>203.46</ele>
        <time>2012-09-22T15:13:03Z</time>
      </trkpt>
      <trkpt lat="45.05145" lon="0.9903">
        <ele>202.01</ele>
        <time>2012-09-22T15:13:04Z</time>
      </trkpt>
      <trkpt lat="45.05145" lon="0.99039">
        <ele>201.05</ele>
        <time>2012-09-22T15:13:05Z</time>
      </trkpt>
      <trkpt lat="45.05146" lon="0.99047">
        <ele>200.57</ele>
        <time>2012-09-22T15:13:06Z</time>
      </trkpt>
      <trkpt lat="45.05147" lon="0.99069">
        <ele>197.21</ele>
        <time>2012-09-22T15:13:10Z</time>
      </trkpt>
      <trkpt lat="45.05147" lon="0.99072">
        <ele>197.21</ele>
        <time>2012-09-22T15:13:11Z</time>
      </trkpt>
      <trkpt lat="45.05147" lon="0.99106">
        <ele>195.28</ele>
        <time>2012-09-22T15:13:19Z</time>
      </trkpt>
      <trkpt lat="45.05146" lon="0.99107">
        <ele>194.32</ele>
        <time>2012-09-22T15:13:20Z</time>
      </trkpt>
      <trkpt lat="45.05142" lon="0.99092">
        <ele>193.36</ele>
        <time>2012-09-22T15:13:27Z</time>
      </trkpt>
      <trkpt lat="45.05133" lon="0.99039">
        <ele>193.36</ele>
        <time>2012-09-22T15:13:39Z</time>
      </trkpt>
      <trkpt lat="45.05117" lon="0.98985">
        <ele>192.88</ele>
        <time>2012-09-22T15:13:48Z</time>
      </trkpt>
      <trkpt lat="45.05112" lon="0.98974">
        <ele>192.88</ele>
        <time>2012-09-22T15:13:50Z</time>
      </trkpt>
      <trkpt lat="45.05109" lon="0.98969">
        <ele>192.88</ele>
        <time>2012-09-22T15:13:51Z</time>
      </trkpt>
      <trkpt lat="45.05105" lon="0.98964">
        <ele>192.4</ele>
        <time>2012-09-22T15:13:52Z</time>
      </trkpt>
      <trkpt lat="45.05101" lon="0.9896">
        <ele>192.4</ele>
        <time>2012-09-22T15:13:53Z</time>
      </trkpt>
      <trkpt lat="45.05096" lon="0.98955">
        <ele>192.4</ele>
        <time>2012-09-22T15:13:54Z</time>
      </trkpt>
      <trkpt lat="45.05092" lon="0.98951">
        <ele>191.92</ele>
        <time>2012-09-22T15:13:55Z</time>
      </trkpt>
      <trkpt lat="45.05087" lon="0.98949">
        <ele>191.92</ele>
        <time>2012-09-22T15:13:56Z</time>
      </trkpt>
      <trkpt lat="45.05082" lon="0.98948">
        <ele>191.44</ele>
        <time>2012-09-22T15:13:57Z</time>
      </trkpt>
      <trkpt lat="45.05077" lon="0.98949">
        <ele>191.92</ele>
        <time>2012-09-22T15:13:58Z</time>
      </trkpt>
      <trkpt lat="45.05073" lon="0.9895">
        <ele>191.92</ele>
        <time>2012-09-22T15:13:59Z</time>
      </trkpt>
      <trkpt lat="45.05035" lon="0.98964">
        <ele>195.77</ele>
        <time>2012-09-22T15:14:12Z</time>
      </trkpt>
      <trkpt lat="45.05004" lon="0.98974">
        <ele>199.13</ele>
        <time>2012-09-22T15:14:26Z</time>
      </trkpt>
      <trkpt lat="45.04991" lon="0.98961">
        <ele>202.01</ele>
        <time>2012-09-22T15:14:36Z</time>
      </trkpt>
      <trkpt lat="45.0499" lon="0.98959">
        <ele>202.49</ele>
        <time>2012-09-22T15:14:37Z</time>
      </trkpt>
      <trkpt lat="45.04989" lon="0.98957">
        <ele>202.49</ele>
        <time>2012-09-22T15:14:38Z</time>
      </trkpt>
      <trkpt lat="45.04976" lon="0.98934">
        <ele>206.34</ele>
        <time>2012-09-22T15:14:53Z</time>
      </trkpt>
      <trkpt lat="45.04975" lon="0.98933">
        <ele>205.86</ele>
        <time>2012-09-22T15:14:54Z</time>
      </trkpt>
      <trkpt lat="45.04974" lon="0.98932">
        <ele>205.86</ele>
        <time>2012-09-22T15:14:55Z</time>
      </trkpt>
      <trkpt lat="45.04969" lon="0.98911">
        <ele>209.22</ele>
        <time>2012-09-22T15:15:06Z</time>
      </trkpt>
      <trkpt lat="45.04968" lon="0.98873">
        <ele>212.11</ele>
        <time>2012-09-22T15:15:21Z</time>
      </trkpt>
      <trkpt lat="45.04958" lon="0.98842">
        <ele>215.47</ele>
        <time>2012-09-22T15:15:36Z</time>
      </trkpt>
      <trkpt lat="45.04945" lon="0.98808">
        <ele>218.84</ele>
        <time>2012-09-22T15:15:50Z</time>
      </trkpt>
      <trkpt lat="45.04944" lon="0.98806">
        <ele>218.84</ele>
        <time>2012-09-22T15:15:51Z</time>
      </trkpt>
      <trkpt lat="45.0493" lon="0.98775">
        <ele>222.2</ele>
        <time>2012-09-22T15:16:06Z</time>
      </trkpt>
      <trkpt lat="45.04917" lon="0.98745">
        <ele>225.09</ele>
        <time>2012-09-22T15:16:21Z</time>
      </trkpt>
      <trkpt lat="45.04917" lon="0.98742">
        <ele>225.09</ele>
        <time>2012-09-22T15:16:22Z</time>
      </trkpt>
      <trkpt lat="45.049" lon="0.98722">
        <ele>227.49</ele>
        <time>2012-09-22T15:16:37Z</time>
      </trkpt>
      <trkpt lat="45.04897" lon="0.98726">
        <ele>228.45</ele>
        <time>2012-09-22T15:16:39Z</time>
      </trkpt>
      <trkpt lat="45.04897" lon="0.98728">
        <ele>227.97</ele>
        <time>2012-09-22T15:16:40Z</time>
      </trkpt>
      <trkpt lat="45.04896" lon="0.9873">
        <ele>228.45</ele>
        <time>2012-09-22T15:16:41Z</time>
      </trkpt>
      <trkpt lat="45.04879" lon="0.98765">
        <ele>231.81</ele>
        <time>2012-09-22T15:16:56Z</time>
      </trkpt>
      <trkpt lat="45.04864" lon="0.98769">
        <ele>233.26</ele>
        <time>2012-09-22T15:17:03Z</time>
      </trkpt>
      <trkpt lat="45.04842" lon="0.98751">
        <ele>236.14</ele>
        <time>2012-09-22T15:17:17Z</time>
      </trkpt>
      <trkpt lat="45.04819" lon="0.98733">
        <ele>239.51</ele>
        <time>2012-09-22T15:17:31Z</time>
      </trkpt>
      <trkpt lat="45.04789" lon="0.98714">
        <ele>242.39</ele>
        <time>2012-09-22T15:17:48Z</time>
      </trkpt>
      <trkpt lat="45.04758" lon="0.98695">
        <ele>245.27</ele>
        <time>2012-09-22T15:18:02Z</time>
      </trkpt>
      <trkpt lat="45.04717" lon="0.98671">
        <ele>248.16</ele>
        <time>2012-09-22T15:18:17Z</time>
      </trkpt>
      <trkpt lat="45.04674" lon="0.98641">
        <ele>250.56</ele>
        <time>2012-09-22T15:18:32Z</time>
      </trkpt>
      <trkpt lat="45.04656" lon="0.98621">
        <ele>251.52</ele>
        <time>2012-09-22T15:18:42Z</time>
      </trkpt>
      <trkpt lat="45.04621" lon="0.98599">
        <ele>254.41</ele>
        <time>2012-09-22T15:18:55Z</time>
      </trkpt>
      <trkpt lat="45.04587" lon="0.98573">
        <ele>257.29</ele>
        <time>2012-09-22T15:19:11Z</time>
      </trkpt>
      <trkpt lat="45.04565" lon="0.98555">
        <ele>260.17</ele>
        <time>2012-09-22T15:19:23Z</time>
      </trkpt>
      <trkpt lat="45.0454" lon="0.9854">
        <ele>263.54</ele>
        <time>2012-09-22T15:19:35Z</time>
      </trkpt>
      <trkpt lat="45.0451" lon="0.98532">
        <ele>266.9</ele>
        <time>2012-09-22T15:19:48Z</time>
      </trkpt>
      <trkpt lat="45.04473" lon="0.98533">
        <ele>269.79</ele>
        <time>2012-09-22T15:20:04Z</time>
      </trkpt>
      <trkpt lat="45.04451" lon="0.98532">
        <ele>273.15</ele>
        <time>2012-09-22T15:20:16Z</time>
      </trkpt>
      <trkpt lat="45.04447" lon="0.98531">
        <ele>272.67</ele>
        <time>2012-09-22T15:20:18Z</time>
      </trkpt>
      <trkpt lat="45.04446" lon="0.98529">
        <ele>273.15</ele>
        <time>2012-09-22T15:20:19Z</time>
      </trkpt>
      <trkpt lat="45.04444" lon="0.98527">
        <ele>272.67</ele>
        <time>2012-09-22T15:20:20Z</time>
      </trkpt>
      <trkpt lat="45.04442" lon="0.98526">
        <ele>273.63</ele>
        <time>2012-09-22T15:20:21Z</time>
      </trkpt>
      <trkpt lat="45.0444" lon="0.98525">
        <ele>273.63</ele>
        <time>2012-09-22T15:20:22Z</time>
      </trkpt>
      <trkpt lat="45.04438" lon="0.98524">
        <ele>273.63</ele>
        <time>2012-09-22T15:20:23Z</time>
      </trkpt>
      <trkpt lat="45.04436" lon="0.98524">
        <ele>274.11</ele>
        <time>2012-09-22T15:20:24Z</time>
      </trkpt>
      <trkpt lat="45.04409" lon="0.98525">
        <ele>276.04</ele>
        <time>2012-09-22T15:20:39Z</time>
      </trkpt>
      <trkpt lat="45.04401" lon="0.98524">
        <ele>276.52</ele>
        <time>2012-09-22T15:20:43Z</time>
      </trkpt>
      <trkpt lat="45.044" lon="0.98525">
        <ele>277</ele>
        <time>2012-09-22T15:20:44Z</time>
      </trkpt>
      <trkpt lat="45.044" lon="0.98526">
        <ele>277</ele>
        <time>2012-09-22T15:20:52Z</time>
      </trkpt>
      <trkpt lat="45.04402" lon="0.9853">
        <ele>277</ele>
        <time>2012-09-22T15:21:15Z</time>
      </trkpt>
      <trkpt lat="45.04405" lon="0.9853">
        <ele>276.52</ele>
        <time>2012-09-22T15:21:36Z</time>
      </trkpt>
      <trkpt lat="45.04405" lon="0.9853">
        <ele>277</ele>
        <time>2012-09-22T15:21:58Z</time>
      </trkpt>
      <trkpt lat="45.04408" lon="0.9853">
        <ele>277</ele>
        <time>2012-09-22T15:22:25Z</time>
      </trkpt>
      <trkpt lat="45.04407" lon="0.98529">
        <ele>277.96</ele>
        <time>2012-09-22T15:22:53Z</time>
      </trkpt>
      <trkpt lat="45.04405" lon="0.9853">
        <ele>277.48</ele>
        <time>2012-09-22T15:23:12Z</time>
      </trkpt>
      <trkpt lat="45.04401" lon="0.9853">
        <ele>277.96</ele>
        <time>2012-09-22T15:23:32Z</time>
      </trkpt>
      <trkpt lat="45.044" lon="0.98523">
        <ele>277.48</ele>
        <time>2012-09-22T15:23:47Z</time>
      </trkpt>
      <trkpt lat="45.04397" lon="0.9852">
        <ele>277.96</ele>
        <time>2012-09-22T15:24:12Z</time>
      </trkpt>
      <trkpt lat="45.04394" lon="0.98519">
        <ele>277.96</ele>
        <time>2012-09-22T15:24:25Z</time>
      </trkpt>
      <trkpt lat="45.04393" lon="0.98518">
        <ele>278.44</ele>
        <time>2012-09-22T15:24:26Z</time>
      </trkpt>
      <trkpt lat="45.04392" lon="0.98517">
        <ele>277.96</ele>
        <time>2012-09-22T15:24:27Z</time>
      </trkpt>
      <trkpt lat="45.0439" lon="0.98516">
        <ele>277.96</ele>
        <time>2012-09-22T15:24:28Z</time>
      </trkpt>
      <trkpt lat="45.04388" lon="0.98514">
        <ele>277.96</ele>
        <time>2012-09-22T15:24:29Z</time>
      </trkpt>
      <trkpt lat="45.04386" lon="0.98512">
        <ele>277.96</ele>
        <time>2012-09-22T15:24:30Z</time>
      </trkpt>
      <trkpt lat="45.04385" lon="0.98511">
        <ele>277.96</ele>
        <time>2012-09-22T15:24:31Z</time>
      </trkpt>
      <trkpt lat="45.04383" lon="0.9851">
        <ele>278.44</ele>
        <time>2012-09-22T15:24:32Z</time>
      </trkpt>
      <trkpt lat="45.04351" lon="0.98496">
        <ele>278.92</ele>
        <time>2012-09-22T15:24:45Z</time>
      </trkpt>
      <trkpt lat="45.04319" lon="0.9847">
        <ele>278.44</ele>
        <time>2012-09-22T15:24:56Z</time>
      </trkpt>
      <trkpt lat="45.04288" lon="0.9843">
        <ele>279.4</ele>
        <time>2012-09-22T15:25:07Z</time>
      </trkpt>
      <trkpt lat="45.04269" lon="0.98408">
        <ele>279.88</ele>
        <time>2012-09-22T15:25:13Z</time>
      </trkpt>
      <trkpt lat="45.04255" lon="0.98398">
        <ele>280.36</ele>
        <time>2012-09-22T15:25:17Z</time>
      </trkpt>
      <trkpt lat="45.04195" lon="0.98361">
        <ele>279.4</ele>
        <time>2012-09-22T15:25:32Z</time>
      </trkpt>
      <trkpt lat="45.04169" lon="0.98348">
        <ele>278.92</ele>
        <time>2012-09-22T15:25:38Z</time>
      </trkpt>
      <trkpt lat="45.04106" lon="0.98325">
        <ele>278.44</ele>
        <time>2012-09-22T15:25:49Z</time>
      </trkpt>
      <trkpt lat="45.0408" lon="0.98314">
        <ele>279.4</ele>
        <time>2012-09-22T15:25:55Z</time>
      </trkpt>
      <trkpt lat="45.04034" lon="0.98282">
        <ele>281.32</ele>
        <time>2012-09-22T15:26:07Z</time>
      </trkpt>
      <trkpt lat="45.04007" lon="0.98257">
        <ele>281.32</ele>
        <time>2012-09-22T15:26:15Z</time>
      </trkpt>
      <trkpt lat="45.04003" lon="0.98257">
        <ele>281.8</ele>
        <time>2012-09-22T15:26:16Z</time>
      </trkpt>
      <trkpt lat="45.03999" lon="0.98257">
        <ele>281.8</ele>
        <time>2012-09-22T15:26:17Z</time>
      </trkpt>
      <trkpt lat="45.03994" lon="0.98258">
        <ele>281.32</ele>
        <time>2012-09-22T15:26:18Z</time>
      </trkpt>
      <trkpt lat="45.03989" lon="0.98259">
        <ele>281.8</ele>
        <time>2012-09-22T15:26:19Z</time>
      </trkpt>
      <trkpt lat="45.03984" lon="0.9826">
        <ele>280.84</ele>
        <time>2012-09-22T15:26:20Z</time>
      </trkpt>
      <trkpt lat="45.0397" lon="0.98267">
        <ele>280.36</ele>
        <time>2012-09-22T15:26:23Z</time>
      </trkpt>
      <trkpt lat="45.03933" lon="0.98305">
        <ele>280.84</ele>
        <time>2012-09-22T15:26:34Z</time>
      </trkpt>
      <trkpt lat="45.0392" lon="0.98354">
        <ele>281.32</ele>
        <time>2012-09-22T15:26:45Z</time>
      </trkpt>
      <trkpt lat="45.03914" lon="0.9838">
        <ele>284.69</ele>
        <time>2012-09-22T15:26:54Z</time>
      </trkpt>
      <trkpt lat="45.03914" lon="0.9841">
        <ele>286.13</ele>
        <time>2012-09-22T15:27:05Z</time>
      </trkpt>
      <trkpt lat="45.03936" lon="0.98462">
        <ele>284.21</ele>
        <time>2012-09-22T15:27:18Z</time>
      </trkpt>
      <trkpt lat="45.03945" lon="0.98532">
        <ele>283.73</ele>
        <time>2012-09-22T15:27:32Z</time>
      </trkpt>
      <trkpt lat="45.03943" lon="0.98592">
        <ele>285.65</ele>
        <time>2012-09-22T15:27:46Z</time>
      </trkpt>
      <trkpt lat="45.03942" lon="0.98644">
        <ele>284.69</ele>
        <time>2012-09-22T15:27:56Z</time>
      </trkpt>
      <trkpt lat="45.0394" lon="0.9865">
        <ele>284.69</ele>
        <time>2012-09-22T15:27:57Z</time>
      </trkpt>
      <trkpt lat="45.03934" lon="0.9866">
        <ele>284.69</ele>
        <time>2012-09-22T15:27:59Z</time>
      </trkpt>
      <trkpt lat="45.03919" lon="0.98677">
        <ele>283.73</ele>
        <time>2012-09-22T15:28:03Z</time>
      </trkpt>
      <trkpt lat="45.03915" lon="0.98682">
        <ele>283.73</ele>
        <time>2012-09-22T15:28:04Z</time>
      </trkpt>
      <trkpt lat="45.03906" lon="0.98699">
        <ele>284.21</ele>
        <time>2012-09-22T15:28:07Z</time>
      </trkpt>
      <trkpt lat="45.03895" lon="0.98727">
        <ele>284.21</ele>
        <time>2012-09-22T15:28:12Z</time>
      </trkpt>
      <trkpt lat="45.03867" lon="0.98757">
        <ele>285.65</ele>
        <time>2012-09-22T15:28:23Z</time>
      </trkpt>
      <trkpt lat="45.03865" lon="0.98754">
        <ele>286.13</ele>
        <time>2012-09-22T15:28:24Z</time>
      </trkpt>
      <trkpt lat="45.03863" lon="0.9875">
        <ele>285.65</ele>
        <time>2012-09-22T15:28:25Z</time>
      </trkpt>
      <trkpt lat="45.03827" lon="0.98715">
        <ele>287.57</ele>
        <time>2012-09-22T15:28:38Z</time>
      </trkpt>
      <trkpt lat="45.0379" lon="0.98689">
        <ele>289.97</ele>
        <time>2012-09-22T15:28:50Z</time>
      </trkpt>
      <trkpt lat="45.03787" lon="0.98685">
        <ele>289.49</ele>
        <time>2012-09-22T15:28:51Z</time>
      </trkpt>
      <trkpt lat="45.03766" lon="0.9866">
        <ele>291.9</ele>
        <time>2012-09-22T15:28:58Z</time>
      </trkpt>
      <trkpt lat="45.0373" lon="0.98619">
        <ele>293.82</ele>
        <time>2012-09-22T15:29:11Z</time>
      </trkpt>
      <trkpt lat="45.0369" lon="0.98573">
        <ele>294.3</ele>
        <time>2012-09-22T15:29:27Z</time>
      </trkpt>
      <trkpt lat="45.03682" lon="0.98561">
        <ele>293.82</ele>
        <time>2012-09-22T15:29:30Z</time>
      </trkpt>
      <trkpt lat="45.0368" lon="0.98556">
        <ele>293.34</ele>
        <time>2012-09-22T15:29:31Z</time>
      </trkpt>
      <trkpt lat="45.03675" lon="0.98544">
        <ele>292.86</ele>
        <time>2012-09-22T15:29:33Z</time>
      </trkpt>
      <trkpt lat="45.03635" lon="0.98444">
        <ele>291.42</ele>
        <time>2012-09-22T15:29:48Z</time>
      </trkpt>
      <trkpt lat="45.03605" lon="0.98349">
        <ele>292.86</ele>
        <time>2012-09-22T15:30:02Z</time>
      </trkpt>
      <trkpt lat="45.036" lon="0.98332">
        <ele>292.86</ele>
        <time>2012-09-22T15:30:05Z</time>
      </trkpt>
      <trkpt lat="45.03589" lon="0.9829">
        <ele>293.82</ele>
        <time>2012-09-22T15:30:13Z</time>
      </trkpt>
      <trkpt lat="45.03583" lon="0.98261">
        <ele>293.34</ele>
        <time>2012-09-22T15:30:18Z</time>
      </trkpt>
      <trkpt lat="45.03581" lon="0.98255">
        <ele>292.86</ele>
        <time>2012-09-22T15:30:19Z</time>
      </trkpt>
      <trkpt lat="45.03547" lon="0.98161">
        <ele>292.38</ele>
        <time>2012-09-22T15:30:34Z</time>
      </trkpt>
      <trkpt lat="45.03523" lon="0.98066">
        <ele>290.46</ele>
        <time>2012-09-22T15:30:50Z</time>
      </trkpt>
      <trkpt lat="45.03507" lon="0.97982">
        <ele>290.46</ele>
        <time>2012-09-22T15:31:05Z</time>
      </trkpt>
      <trkpt lat="45.03482" lon="0.97933">
        <ele>290.94</ele>
        <time>2012-09-22T15:31:18Z</time>
      </trkpt>
      <trkpt lat="45.03477" lon="0.97924">
        <ele>291.42</ele>
        <time>2012-09-22T15:31:20Z</time>
      </trkpt>
      <trkpt lat="45.03451" lon="0.97873">
        <ele>290.94</ele>
        <time>2012-09-22T15:31:30Z</time>
      </trkpt>
      <trkpt lat="45.03446" lon="0.97861">
        <ele>290.94</ele>
        <time>2012-09-22T15:31:32Z</time>
      </trkpt>
      <trkpt lat="45.03417" lon="0.97798">
        <ele>293.34</ele>
        <time>2012-09-22T15:31:47Z</time>
      </trkpt>
      <trkpt lat="45.03395" lon="0.97765">
        <ele>295.74</ele>
        <time>2012-09-22T15:31:59Z</time>
      </trkpt>
      <trkpt lat="45.03389" lon="0.97771">
        <ele>295.74</ele>
        <time>2012-09-22T15:32:02Z</time>
      </trkpt>
      <trkpt lat="45.03351" lon="0.97805">
        <ele>294.78</ele>
        <time>2012-09-22T15:32:16Z</time>
      </trkpt>
      <trkpt lat="45.03316" lon="0.97825">
        <ele>294.3</ele>
        <time>2012-09-22T15:32:26Z</time>
      </trkpt>
      <trkpt lat="45.03288" lon="0.97847">
        <ele>293.34</ele>
        <time>2012-09-22T15:32:34Z</time>
      </trkpt>
      <trkpt lat="45.03252" lon="0.97875">
        <ele>292.38</ele>
        <time>2012-09-22T15:32:45Z</time>
      </trkpt>
      <trkpt lat="45.03215" lon="0.97891">
        <ele>290.94</ele>
        <time>2012-09-22T15:32:55Z</time>
      </trkpt>
      <trkpt lat="45.032" lon="0.97898">
        <ele>290.46</ele>
        <time>2012-09-22T15:32:58Z</time>
      </trkpt>
      <trkpt lat="45.03174" lon="0.97911">
        <ele>288.53</ele>
        <time>2012-09-22T15:33:03Z</time>
      </trkpt>
      <trkpt lat="45.03169" lon="0.9791">
        <ele>288.53</ele>
        <time>2012-09-22T15:33:04Z</time>
      </trkpt>
      <trkpt lat="45.0316" lon="0.97907">
        <ele>287.57</ele>
        <time>2012-09-22T15:33:06Z</time>
      </trkpt>
      <trkpt lat="45.03155" lon="0.97907">
        <ele>287.57</ele>
        <time>2012-09-22T15:33:07Z</time>
      </trkpt>
      <trkpt lat="45.0315" lon="0.97908">
        <ele>287.09</ele>
        <time>2012-09-22T15:33:08Z</time>
      </trkpt>
      <trkpt lat="45.03146" lon="0.97911">
        <ele>287.09</ele>
        <time>2012-09-22T15:33:09Z</time>
      </trkpt>
      <trkpt lat="45.03141" lon="0.97913">
        <ele>288.05</ele>
        <time>2012-09-22T15:33:10Z</time>
      </trkpt>
      <trkpt lat="45.03068" lon="0.97948">
        <ele>285.17</ele>
        <time>2012-09-22T15:33:25Z</time>
      </trkpt>
      <trkpt lat="45.03037" lon="0.97959">
        <ele>284.69</ele>
        <time>2012-09-22T15:33:32Z</time>
      </trkpt>
      <trkpt lat="45.03033" lon="0.97958">
        <ele>284.21</ele>
        <time>2012-09-22T15:33:33Z</time>
      </trkpt>
      <trkpt lat="45.0303" lon="0.97953">
        <ele>284.21</ele>
        <time>2012-09-22T15:33:34Z</time>
      </trkpt>
      <trkpt lat="45.03029" lon="0.97947">
        <ele>284.21</ele>
        <time>2012-09-22T15:33:35Z</time>
      </trkpt>
      <trkpt lat="45.03028" lon="0.9794">
        <ele>283.25</ele>
        <time>2012-09-22T15:33:36Z</time>
      </trkpt>
      <trkpt lat="45.03026" lon="0.97933">
        <ele>283.73</ele>
        <time>2012-09-22T15:33:37Z</time>
      </trkpt>
      <trkpt lat="45.03025" lon="0.97926">
        <ele>283.25</ele>
        <time>2012-09-22T15:33:38Z</time>
      </trkpt>
      <trkpt lat="45.02996" lon="0.97841">
        <ele>282.77</ele>
        <time>2012-09-22T15:33:50Z</time>
      </trkpt>
      <trkpt lat="45.02993" lon="0.97836">
        <ele>283.25</ele>
        <time>2012-09-22T15:33:51Z</time>
      </trkpt>
      <trkpt lat="45.02959" lon="0.97768">
        <ele>285.17</ele>
        <time>2012-09-22T15:34:03Z</time>
      </trkpt>
      <trkpt lat="45.02953" lon="0.97743">
        <ele>284.69</ele>
        <time>2012-09-22T15:34:08Z</time>
      </trkpt>
      <trkpt lat="45.02953" lon="0.97737">
        <ele>285.17</ele>
        <time>2012-09-22T15:34:09Z</time>
      </trkpt>
      <trkpt lat="45.02954" lon="0.97732">
        <ele>285.17</ele>
        <time>2012-09-22T15:34:10Z</time>
      </trkpt>
      <trkpt lat="45.02956" lon="0.97722">
        <ele>285.17</ele>
        <time>2012-09-22T15:34:12Z</time>
      </trkpt>
      <trkpt lat="45.02957" lon="0.97717">
        <ele>285.65</ele>
        <time>2012-09-22T15:34:13Z</time>
      </trkpt>
      <trkpt lat="45.02959" lon="0.97712">
        <ele>286.13</ele>
        <time>2012-09-22T15:34:14Z</time>
      </trkpt>
      <trkpt lat="45.02962" lon="0.97661">
        <ele>287.09</ele>
        <time>2012-09-22T15:34:26Z</time>
      </trkpt>
      <trkpt lat="45.02963" lon="0.97596">
        <ele>289.01</ele>
        <time>2012-09-22T15:34:40Z</time>
      </trkpt>
      <trkpt lat="45.02962" lon="0.97517">
        <ele>290.94</ele>
        <time>2012-09-22T15:34:57Z</time>
      </trkpt>
      <trkpt lat="45.02966" lon="0.97464">
        <ele>289.97</ele>
        <time>2012-09-22T15:35:08Z</time>
      </trkpt>
      <trkpt lat="45.02971" lon="0.97437">
        <ele>289.49</ele>
        <time>2012-09-22T15:35:12Z</time>
      </trkpt>
      <trkpt lat="45.02986" lon="0.97368">
        <ele>288.53</ele>
        <time>2012-09-22T15:35:21Z</time>
      </trkpt>
      <trkpt lat="45.02987" lon="0.97361">
        <ele>288.53</ele>
        <time>2012-09-22T15:35:22Z</time>
      </trkpt>
      <trkpt lat="45.03" lon="0.97268">
        <ele>290.94</ele>
        <time>2012-09-22T15:35:38Z</time>
      </trkpt>
      <trkpt lat="45.02974" lon="0.97214">
        <ele>290.46</ele>
        <time>2012-09-22T15:35:49Z</time>
      </trkpt>
      <trkpt lat="45.02972" lon="0.97209">
        <ele>289.97</ele>
        <time>2012-09-22T15:35:50Z</time>
      </trkpt>
      <trkpt lat="45.02935" lon="0.97133">
        <ele>289.01</ele>
        <time>2012-09-22T15:36:06Z</time>
      </trkpt>
      <trkpt lat="45.02909" lon="0.97078">
        <ele>288.05</ele>
        <time>2012-09-22T15:36:17Z</time>
      </trkpt>
      <trkpt lat="45.02875" lon="0.96999">
        <ele>286.61</ele>
        <time>2012-09-22T15:36:31Z</time>
      </trkpt>
      <trkpt lat="45.02872" lon="0.96992">
        <ele>286.61</ele>
        <time>2012-09-22T15:36:32Z</time>
      </trkpt>
      <trkpt lat="45.02845" lon="0.96871">
        <ele>284.69</ele>
        <time>2012-09-22T15:36:46Z</time>
      </trkpt>
      <trkpt lat="45.02844" lon="0.96862">
        <ele>284.21</ele>
        <time>2012-09-22T15:36:47Z</time>
      </trkpt>
      <trkpt lat="45.02844" lon="0.96854">
        <ele>283.25</ele>
        <time>2012-09-22T15:36:48Z</time>
      </trkpt>
      <trkpt lat="45.02846" lon="0.96847">
        <ele>283.25</ele>
        <time>2012-09-22T15:36:49Z</time>
      </trkpt>
      <trkpt lat="45.0285" lon="0.96843">
        <ele>283.25</ele>
        <time>2012-09-22T15:36:50Z</time>
      </trkpt>
      <trkpt lat="45.02854" lon="0.9684">
        <ele>283.25</ele>
        <time>2012-09-22T15:36:51Z</time>
      </trkpt>
      <trkpt lat="45.02859" lon="0.96838">
        <ele>283.25</ele>
        <time>2012-09-22T15:36:52Z</time>
      </trkpt>
      <trkpt lat="45.02863" lon="0.96836">
        <ele>283.25</ele>
        <time>2012-09-22T15:36:53Z</time>
      </trkpt>
      <trkpt lat="45.02895" lon="0.96826">
        <ele>282.28</ele>
        <time>2012-09-22T15:37:00Z</time>
      </trkpt>
      <trkpt lat="45.02899" lon="0.96822">
        <ele>282.77</ele>
        <time>2012-09-22T15:37:01Z</time>
      </trkpt>
      <trkpt lat="45.02902" lon="0.96816">
        <ele>281.8</ele>
        <time>2012-09-22T15:37:02Z</time>
      </trkpt>
      <trkpt lat="45.02903" lon="0.96809">
        <ele>281.32</ele>
        <time>2012-09-22T15:37:03Z</time>
      </trkpt>
      <trkpt lat="45.02905" lon="0.96802">
        <ele>281.32</ele>
        <time>2012-09-22T15:37:04Z</time>
      </trkpt>
      <trkpt lat="45.02906" lon="0.96795">
        <ele>280.84</ele>
        <time>2012-09-22T15:37:05Z</time>
      </trkpt>
      <trkpt lat="45.02907" lon="0.96787">
        <ele>280.84</ele>
        <time>2012-09-22T15:37:06Z</time>
      </trkpt>
      <trkpt lat="45.02914" lon="0.96758">
        <ele>280.36</ele>
        <time>2012-09-22T15:37:10Z</time>
      </trkpt>
      <trkpt lat="45.02915" lon="0.9675">
        <ele>280.36</ele>
        <time>2012-09-22T15:37:11Z</time>
      </trkpt>
      <trkpt lat="45.02918" lon="0.96722">
        <ele>279.88</ele>
        <time>2012-09-22T15:37:15Z</time>
      </trkpt>
      <trkpt lat="45.02921" lon="0.96716">
        <ele>279.88</ele>
        <time>2012-09-22T15:37:16Z</time>
      </trkpt>
      <trkpt lat="45.02925" lon="0.96712">
        <ele>279.4</ele>
        <time>2012-09-22T15:37:17Z</time>
      </trkpt>
      <trkpt lat="45.02929" lon="0.96709">
        <ele>279.4</ele>
        <time>2012-09-22T15:37:18Z</time>
      </trkpt>
      <trkpt lat="45.02938" lon="0.96708">
        <ele>277.96</ele>
        <time>2012-09-22T15:37:20Z</time>
      </trkpt>
      <trkpt lat="45.02957" lon="0.96714">
        <ele>277.48</ele>
        <time>2012-09-22T15:37:23Z</time>
      </trkpt>
      <trkpt lat="45.02974" lon="0.96749">
        <ele>274.11</ele>
        <time>2012-09-22T15:37:30Z</time>
      </trkpt>
      <trkpt lat="45.02975" lon="0.96818">
        <ele>275.07</ele>
        <time>2012-09-22T15:37:43Z</time>
      </trkpt>
      <trkpt lat="45.02978" lon="0.9688">
        <ele>278.44</ele>
        <time>2012-09-22T15:37:55Z</time>
      </trkpt>
      <trkpt lat="45.02992" lon="0.96907">
        <ele>278.92</ele>
        <time>2012-09-22T15:38:05Z</time>
      </trkpt>
      <trkpt lat="45.03022" lon="0.96931">
        <ele>278.92</ele>
        <time>2012-09-22T15:38:17Z</time>
      </trkpt>
      <trkpt lat="45.0305" lon="0.96939">
        <ele>278.92</ele>
        <time>2012-09-22T15:38:26Z</time>
      </trkpt>
      <trkpt lat="45.03088" lon="0.96953">
        <ele>279.88</ele>
        <time>2012-09-22T15:38:37Z</time>
      </trkpt>
      <trkpt lat="45.03125" lon="0.96967">
        <ele>281.8</ele>
        <time>2012-09-22T15:38:49Z</time>
      </trkpt>
      <trkpt lat="45.03158" lon="0.96989">
        <ele>283.25</ele>
        <time>2012-09-22T15:39:00Z</time>
      </trkpt>
      <trkpt lat="45.03187" lon="0.97015">
        <ele>285.17</ele>
        <time>2012-09-22T15:39:12Z</time>
      </trkpt>
      <trkpt lat="45.0322" lon="0.97047">
        <ele>284.69</ele>
        <time>2012-09-22T15:39:25Z</time>
      </trkpt>
      <trkpt lat="45.03246" lon="0.97086">
        <ele>284.69</ele>
        <time>2012-09-22T15:39:35Z</time>
      </trkpt>
      <trkpt lat="45.03253" lon="0.97108">
        <ele>283.73</ele>
        <time>2012-09-22T15:39:39Z</time>
      </trkpt>
      <trkpt lat="45.03273" lon="0.97172">
        <ele>281.32</ele>
        <time>2012-09-22T15:39:49Z</time>
      </trkpt>
      <trkpt lat="45.03275" lon="0.97177">
        <ele>280.84</ele>
        <time>2012-09-22T15:39:50Z</time>
      </trkpt>
      <trkpt lat="45.03279" lon="0.97183">
        <ele>280.36</ele>
        <time>2012-09-22T15:39:55Z</time>
      </trkpt>
      <trkpt lat="45.03288" lon="0.97217">
        <ele>279.4</ele>
        <time>2012-09-22T15:40:07Z</time>
      </trkpt>
      <trkpt lat="45.03309" lon="0.97265">
        <ele>277.96</ele>
        <time>2012-09-22T15:40:19Z</time>
      </trkpt>
      <trkpt lat="45.03336" lon="0.97289">
        <ele>277.96</ele>
        <time>2012-09-22T15:40:27Z</time>
      </trkpt>
      <trkpt lat="45.03377" lon="0.97309">
        <ele>278.44</ele>
        <time>2012-09-22T15:40:37Z</time>
      </trkpt>
      <trkpt lat="45.03415" lon="0.97318">
        <ele>278.92</ele>
        <time>2012-09-22T15:40:47Z</time>
      </trkpt>
      <trkpt lat="45.0344" lon="0.97324">
        <ele>279.4</ele>
        <time>2012-09-22T15:40:53Z</time>
      </trkpt>
      <trkpt lat="45.03471" lon="0.9734">
        <ele>283.25</ele>
        <time>2012-09-22T15:40:59Z</time>
      </trkpt>
      <trkpt lat="45.03482" lon="0.97345">
        <ele>284.21</ele>
        <time>2012-09-22T15:41:01Z</time>
      </trkpt>
      <trkpt lat="45.03508" lon="0.97357">
        <ele>286.13</ele>
        <time>2012-09-22T15:41:06Z</time>
      </trkpt>
      <trkpt lat="45.03546" lon="0.97375">
        <ele>288.53</ele>
        <time>2012-09-22T15:41:18Z</time>
      </trkpt>
      <trkpt lat="45.0355" lon="0.97378">
        <ele>288.53</ele>
        <time>2012-09-22T15:41:21Z</time>
      </trkpt>
      <trkpt lat="45.03551" lon="0.97382">
        <ele>288.53</ele>
        <time>2012-09-22T15:41:30Z</time>
      </trkpt>
      <trkpt lat="45.03552" lon="0.97385">
        <ele>289.01</ele>
        <time>2012-09-22T15:41:32Z</time>
      </trkpt>
      <trkpt lat="45.0355" lon="0.97421">
        <ele>289.97</ele>
        <time>2012-09-22T15:41:45Z</time>
      </trkpt>
      <trkpt lat="45.03545" lon="0.97472">
        <ele>291.42</ele>
        <time>2012-09-22T15:41:57Z</time>
      </trkpt>
      <trkpt lat="45.03535" lon="0.97518">
        <ele>293.34</ele>
        <time>2012-09-22T15:42:05Z</time>
      </trkpt>
      <trkpt lat="45.03534" lon="0.97524">
        <ele>293.34</ele>
        <time>2012-09-22T15:42:06Z</time>
      </trkpt>
      <trkpt lat="45.03533" lon="0.97529">
        <ele>293.34</ele>
        <time>2012-09-22T15:42:07Z</time>
      </trkpt>
      <trkpt lat="45.03523" lon="0.97584">
        <ele>294.3</ele>
        <time>2012-09-22T15:42:19Z</time>
      </trkpt>
      <trkpt lat="45.03522" lon="0.9759">
        <ele>294.78</ele>
        <time>2012-09-22T15:42:20Z</time>
      </trkpt>
      <trkpt lat="45.03509" lon="0.97694">
        <ele>297.18</ele>
        <time>2012-09-22T15:42:35Z</time>
      </trkpt>
      <trkpt lat="45.03507" lon="0.97756">
        <ele>295.26</ele>
        <time>2012-09-22T15:42:44Z</time>
      </trkpt>
      <trkpt lat="45.03506" lon="0.97763">
        <ele>295.26</ele>
        <time>2012-09-22T15:42:45Z</time>
      </trkpt>
      <trkpt lat="45.03506" lon="0.97769">
        <ele>294.3</ele>
        <time>2012-09-22T15:42:46Z</time>
      </trkpt>
      <trkpt lat="45.03508" lon="0.97772">
        <ele>293.34</ele>
        <time>2012-09-22T15:42:47Z</time>
      </trkpt>
      <trkpt lat="45.0351" lon="0.97774">
        <ele>293.82</ele>
        <time>2012-09-22T15:42:48Z</time>
      </trkpt>
      <trkpt lat="45.0351" lon="0.97773">
        <ele>293.34</ele>
        <time>2012-09-22T15:43:03Z</time>
      </trkpt>
      <trkpt lat="45.03511" lon="0.97772">
        <ele>293.34</ele>
        <time>2012-09-22T15:43:20Z</time>
      </trkpt>
      <trkpt lat="45.03513" lon="0.97771">
        <ele>293.34</ele>
        <time>2012-09-22T15:43:34Z</time>
      </trkpt>
      <trkpt lat="45.03517" lon="0.97774">
        <ele>293.82</ele>
        <time>2012-09-22T15:43:46Z</time>
      </trkpt>
      <trkpt lat="45.03522" lon="0.97772">
        <ele>293.34</ele>
        <time>2012-09-22T15:44:22Z</time>
      </trkpt>
      <trkpt lat="45.03518" lon="0.97774">
        <ele>293.34</ele>
        <time>2012-09-22T15:44:49Z</time>
      </trkpt>
      <trkpt lat="45.03517" lon="0.97773">
        <ele>293.34</ele>
        <time>2012-09-22T15:45:15Z</time>
      </trkpt>
      <trkpt lat="45.03516" lon="0.97772">
        <ele>293.34</ele>
        <time>2012-09-22T15:45:56Z</time>
      </trkpt>
      <trkpt lat="45.03515" lon="0.97771">
        <ele>293.34</ele>
        <time>2012-09-22T15:46:31Z</time>
      </trkpt>
      <trkpt lat="45.0352" lon="0.9777">
        <ele>292.86</ele>
        <time>2012-09-22T15:47:00Z</time>
      </trkpt>
      <trkpt lat="45.03517" lon="0.97772">
        <ele>292.86</ele>
        <time>2012-09-22T15:47:30Z</time>
      </trkpt>
      <trkpt lat="45.03519" lon="0.97774">
        <ele>293.34</ele>
        <time>2012-09-22T15:47:49Z</time>
      </trkpt>
      <trkpt lat="45.0352" lon="0.97772">
        <ele>292.38</ele>
        <time>2012-09-22T15:48:14Z</time>
      </trkpt>
      <trkpt lat="45.03523" lon="0.97773">
        <ele>292.38</ele>
        <time>2012-09-22T15:48:19Z</time>
      </trkpt>
      <trkpt lat="45.03552" lon="0.97782">
        <ele>293.82</ele>
        <time>2012-09-22T15:48:29Z</time>
      </trkpt>
      <trkpt lat="45.03596" lon="0.97802">
        <ele>292.38</ele>
        <time>2012-09-22T15:48:42Z</time>
      </trkpt>
      <trkpt lat="45.03625" lon="0.97819">
        <ele>290.46</ele>
        <time>2012-09-22T15:48:54Z</time>
      </trkpt>
      <trkpt lat="45.03629" lon="0.97821">
        <ele>290.46</ele>
        <time>2012-09-22T15:48:55Z</time>
      </trkpt>
      <trkpt lat="45.03652" lon="0.97835">
        <ele>288.53</ele>
        <time>2012-09-22T15:49:01Z</time>
      </trkpt>
      <trkpt lat="45.03703" lon="0.97867">
        <ele>286.13</ele>
        <time>2012-09-22T15:49:15Z</time>
      </trkpt>
      <trkpt lat="45.03712" lon="0.97873">
        <ele>285.17</ele>
        <time>2012-09-22T15:49:19Z</time>
      </trkpt>
      <trkpt lat="45.0371" lon="0.97889">
        <ele>285.17</ele>
        <time>2012-09-22T15:49:24Z</time>
      </trkpt>
      <trkpt lat="45.03691" lon="0.97958">
        <ele>289.01</ele>
        <time>2012-09-22T15:49:39Z</time>
      </trkpt>
      <trkpt lat="45.03688" lon="0.97971">
        <ele>289.01</ele>
        <time>2012-09-22T15:49:42Z</time>
      </trkpt>
      <trkpt lat="45.0369" lon="0.97973">
        <ele>289.49</ele>
        <time>2012-09-22T15:49:43Z</time>
      </trkpt>
      <trkpt lat="45.03725" lon="0.97997">
        <ele>289.49</ele>
        <time>2012-09-22T15:49:54Z</time>
      </trkpt>
      <trkpt lat="45.03749" lon="0.97999">
        <ele>289.49</ele>
        <time>2012-09-22T15:50:00Z</time>
      </trkpt>
      <trkpt lat="45.03767" lon="0.97996">
        <ele>289.01</ele>
        <time>2012-09-22T15:50:04Z</time>
      </trkpt>
      <trkpt lat="45.03776" lon="0.97994">
        <ele>289.49</ele>
        <time>2012-09-22T15:50:06Z</time>
      </trkpt>
      <trkpt lat="45.038" lon="0.97989">
        <ele>289.49</ele>
        <time>2012-09-22T15:50:11Z</time>
      </trkpt>
      <trkpt lat="45.03836" lon="0.9798">
        <ele>289.01</ele>
        <time>2012-09-22T15:50:19Z</time>
      </trkpt>
      <trkpt lat="45.0384" lon="0.97977">
        <ele>289.01</ele>
        <time>2012-09-22T15:50:20Z</time>
      </trkpt>
      <trkpt lat="45.03842" lon="0.97972">
        <ele>289.01</ele>
        <time>2012-09-22T15:50:21Z</time>
      </trkpt>
      <trkpt lat="45.03844" lon="0.97966">
        <ele>288.53</ele>
        <time>2012-09-22T15:50:22Z</time>
      </trkpt>
      <trkpt lat="45.03871" lon="0.97893">
        <ele>286.13</ele>
        <time>2012-09-22T15:50:34Z</time>
      </trkpt>
      <trkpt lat="45.03864" lon="0.97877">
        <ele>285.65</ele>
        <time>2012-09-22T15:50:38Z</time>
      </trkpt>
      <trkpt lat="45.03865" lon="0.97874">
        <ele>285.65</ele>
        <time>2012-09-22T15:50:39Z</time>
      </trkpt>
      <trkpt lat="45.039" lon="0.97827">
        <ele>284.69</ele>
        <time>2012-09-22T15:50:48Z</time>
      </trkpt>
      <trkpt lat="45.03913" lon="0.9781">
        <ele>283.73</ele>
        <time>2012-09-22T15:50:51Z</time>
      </trkpt>
      <trkpt lat="45.03918" lon="0.97805">
        <ele>283.73</ele>
        <time>2012-09-22T15:50:52Z</time>
      </trkpt>
      <trkpt lat="45.03923" lon="0.97802">
        <ele>283.25</ele>
        <time>2012-09-22T15:50:53Z</time>
      </trkpt>
      <trkpt lat="45.03928" lon="0.97799">
        <ele>283.73</ele>
        <time>2012-09-22T15:50:54Z</time>
      </trkpt>
      <trkpt lat="45.03932" lon="0.97794">
        <ele>283.25</ele>
        <time>2012-09-22T15:50:55Z</time>
      </trkpt>
      <trkpt lat="45.03937" lon="0.97789">
        <ele>282.28</ele>
        <time>2012-09-22T15:50:56Z</time>
      </trkpt>
      <trkpt lat="45.03941" lon="0.97783">
        <ele>282.28</ele>
        <time>2012-09-22T15:50:57Z</time>
      </trkpt>
      <trkpt lat="45.03946" lon="0.97778">
        <ele>282.77</ele>
        <time>2012-09-22T15:50:58Z</time>
      </trkpt>
      <trkpt lat="45.03952" lon="0.97772">
        <ele>281.8</ele>
        <time>2012-09-22T15:50:59Z</time>
      </trkpt>
      <trkpt lat="45.04" lon="0.97712">
        <ele>278.92</ele>
        <time>2012-09-22T15:51:09Z</time>
      </trkpt>
      <trkpt lat="45.0402" lon="0.97684">
        <ele>276.52</ele>
        <time>2012-09-22T15:51:17Z</time>
      </trkpt>
      <trkpt lat="45.04034" lon="0.97653">
        <ele>276.04</ele>
        <time>2012-09-22T15:51:27Z</time>
      </trkpt>
      <trkpt lat="45.04025" lon="0.97598">
        <ele>277.48</ele>
        <time>2012-09-22T15:51:40Z</time>
      </trkpt>
      <trkpt lat="45.04039" lon="0.97548">
        <ele>277.96</ele>
        <time>2012-09-22T15:51:50Z</time>
      </trkpt>
      <trkpt lat="45.04051" lon="0.97516">
        <ele>278.44</ele>
        <time>2012-09-22T15:52:01Z</time>
      </trkpt>
      <trkpt lat="45.04054" lon="0.97511">
        <ele>278.44</ele>
        <time>2012-09-22T15:52:04Z</time>
      </trkpt>
      <trkpt lat="45.04055" lon="0.9751">
        <ele>278.92</ele>
        <time>2012-09-22T15:52:05Z</time>
      </trkpt>
      <trkpt lat="45.04056" lon="0.9751">
        <ele>278.44</ele>
        <time>2012-09-22T15:52:06Z</time>
      </trkpt>
      <trkpt lat="45.0406" lon="0.97513">
        <ele>278.92</ele>
        <time>2012-09-22T15:52:16Z</time>
      </trkpt>
      <trkpt lat="45.04072" lon="0.97526">
        <ele>277.48</ele>
        <time>2012-09-22T15:52:27Z</time>
      </trkpt>
      <trkpt lat="45.04074" lon="0.97528">
        <ele>277.48</ele>
        <time>2012-09-22T15:52:50Z</time>
      </trkpt>
      <trkpt lat="45.04103" lon="0.97549">
        <ele>275.56</ele>
        <time>2012-09-22T15:53:01Z</time>
      </trkpt>
      <trkpt lat="45.04136" lon="0.97573">
        <ele>272.67</ele>
        <time>2012-09-22T15:53:08Z</time>
      </trkpt>
      <trkpt lat="45.04159" lon="0.97584">
        <ele>270.75</ele>
        <time>2012-09-22T15:53:17Z</time>
      </trkpt>
      <trkpt lat="45.04163" lon="0.97589">
        <ele>270.27</ele>
        <time>2012-09-22T15:53:18Z</time>
      </trkpt>
      <trkpt lat="45.04165" lon="0.97595">
        <ele>269.79</ele>
        <time>2012-09-22T15:53:19Z</time>
      </trkpt>
      <trkpt lat="45.04165" lon="0.97602">
        <ele>269.31</ele>
        <time>2012-09-22T15:53:20Z</time>
      </trkpt>
      <trkpt lat="45.04167" lon="0.97609">
        <ele>268.35</ele>
        <time>2012-09-22T15:53:21Z</time>
      </trkpt>
      <trkpt lat="45.04169" lon="0.97613">
        <ele>267.86</ele>
        <time>2012-09-22T15:53:22Z</time>
      </trkpt>
      <trkpt lat="45.04173" lon="0.97616">
        <ele>267.38</ele>
        <time>2012-09-22T15:53:23Z</time>
      </trkpt>
      <trkpt lat="45.04177" lon="0.97618">
        <ele>266.42</ele>
        <time>2012-09-22T15:53:24Z</time>
      </trkpt>
      <trkpt lat="45.04183" lon="0.97619">
        <ele>265.94</ele>
        <time>2012-09-22T15:53:25Z</time>
      </trkpt>
      <trkpt lat="45.04189" lon="0.97621">
        <ele>264.98</ele>
        <time>2012-09-22T15:53:26Z</time>
      </trkpt>
      <trkpt lat="45.04208" lon="0.97625">
        <ele>261.62</ele>
        <time>2012-09-22T15:53:29Z</time>
      </trkpt>
      <trkpt lat="45.04238" lon="0.97632">
        <ele>258.25</ele>
        <time>2012-09-22T15:53:33Z</time>
      </trkpt>
      <trkpt lat="45.04295" lon="0.97645">
        <ele>255.37</ele>
        <time>2012-09-22T15:53:41Z</time>
      </trkpt>
      <trkpt lat="45.04342" lon="0.97651">
        <ele>252.96</ele>
        <time>2012-09-22T15:53:49Z</time>
      </trkpt>
      <trkpt lat="45.04346" lon="0.97652">
        <ele>252.96</ele>
        <time>2012-09-22T15:53:50Z</time>
      </trkpt>
      <trkpt lat="45.04375" lon="0.97666">
        <ele>253.44</ele>
        <time>2012-09-22T15:53:56Z</time>
      </trkpt>
      <trkpt lat="45.04403" lon="0.97697">
        <ele>256.81</ele>
        <time>2012-09-22T15:54:06Z</time>
      </trkpt>
      <trkpt lat="45.04421" lon="0.97721">
        <ele>259.69</ele>
        <time>2012-09-22T15:54:17Z</time>
      </trkpt>
      <trkpt lat="45.04439" lon="0.97746">
        <ele>263.06</ele>
        <time>2012-09-22T15:54:29Z</time>
      </trkpt>
      <trkpt lat="45.04452" lon="0.97754">
        <ele>265.94</ele>
        <time>2012-09-22T15:54:40Z</time>
      </trkpt>
      <trkpt lat="45.04472" lon="0.9777">
        <ele>268.35</ele>
        <time>2012-09-22T15:54:53Z</time>
      </trkpt>
      <trkpt lat="45.04502" lon="0.97792">
        <ele>271.23</ele>
        <time>2012-09-22T15:55:09Z</time>
      </trkpt>
      <trkpt lat="45.04525" lon="0.97807">
        <ele>274.59</ele>
        <time>2012-09-22T15:55:23Z</time>
      </trkpt>
      <trkpt lat="45.04543" lon="0.9782">
        <ele>277.96</ele>
        <time>2012-09-22T15:55:35Z</time>
      </trkpt>
      <trkpt lat="45.04546" lon="0.9782">
        <ele>277.96</ele>
        <time>2012-09-22T15:55:37Z</time>
      </trkpt>
      <trkpt lat="45.04547" lon="0.97818">
        <ele>277.96</ele>
        <time>2012-09-22T15:55:38Z</time>
      </trkpt>
      <trkpt lat="45.04548" lon="0.97816">
        <ele>278.44</ele>
        <time>2012-09-22T15:55:39Z</time>
      </trkpt>
      <trkpt lat="45.04548" lon="0.97813">
        <ele>277.96</ele>
        <time>2012-09-22T15:55:40Z</time>
      </trkpt>
      <trkpt lat="45.04549" lon="0.9781">
        <ele>278.44</ele>
        <time>2012-09-22T15:55:41Z</time>
      </trkpt>
      <trkpt lat="45.0455" lon="0.97807">
        <ele>277.96</ele>
        <time>2012-09-22T15:55:42Z</time>
      </trkpt>
      <trkpt lat="45.0455" lon="0.97805">
        <ele>277.96</ele>
        <time>2012-09-22T15:55:43Z</time>
      </trkpt>
      <trkpt lat="45.04551" lon="0.97802">
        <ele>278.44</ele>
        <time>2012-09-22T15:55:44Z</time>
      </trkpt>
      <trkpt lat="45.0456" lon="0.97778">
        <ele>278.44</ele>
        <time>2012-09-22T15:55:54Z</time>
      </trkpt>
      <trkpt lat="45.04571" lon="0.97721">
        <ele>278.92</ele>
        <time>2012-09-22T15:56:09Z</time>
      </trkpt>
      <trkpt lat="45.04582" lon="0.97668">
        <ele>280.84</ele>
        <time>2012-09-22T15:56:22Z</time>
      </trkpt>
      <trkpt lat="45.04608" lon="0.97628">
        <ele>283.73</ele>
        <time>2012-09-22T15:56:35Z</time>
      </trkpt>
      <trkpt lat="45.0465" lon="0.97618">
        <ele>287.09</ele>
        <time>2012-09-22T15:56:50Z</time>
      </trkpt>
      <trkpt lat="45.04677" lon="0.97628">
        <ele>288.05</ele>
        <time>2012-09-22T15:57:01Z</time>
      </trkpt>
      <trkpt lat="45.04687" lon="0.97693">
        <ele>289.01</ele>
        <time>2012-09-22T15:57:16Z</time>
      </trkpt>
      <trkpt lat="45.04704" lon="0.9775">
        <ele>289.01</ele>
        <time>2012-09-22T15:57:29Z</time>
      </trkpt>
      <trkpt lat="45.04724" lon="0.97765">
        <ele>289.01</ele>
        <time>2012-09-22T15:57:39Z</time>
      </trkpt>
    </trkseg>
  </trk>
</gpx>